createdAt,value
2018-06-28T00:00:22.153Z,0
2018-06-28T00:01:30.225Z,0
2018-06-28T00:02:38.284Z,0
2018-06-28T00:03:46.340Z,0
2018-06-28T00:04:54.421Z,0
2018-06-28T00:06:02.469Z,0
2018-06-28T00:07:10.543Z,0
2018-06-28T00:08:18.604Z,0
2018-06-28T00:09:26.668Z,0
2018-06-28T00:10:34.723Z,0
2018-06-28T00:11:42.803Z,0
2018-06-28T00:12:50.905Z,0
2018-06-28T00:13:58.930Z,0
2018-06-28T00:15:06.957Z,0
2018-06-28T00:16:15.059Z,0
2018-06-28T00:17:23.105Z,0
2018-06-28T00:18:31.186Z,0
2018-06-28T00:19:39.248Z,0
2018-06-28T00:20:47.282Z,0
2018-06-28T00:21:55.369Z,0
2018-06-28T00:23:03.437Z,0
2018-06-28T00:24:11.512Z,0
2018-06-28T00:25:19.577Z,0
2018-06-28T00:26:27.618Z,0
2018-06-28T00:27:35.691Z,0
2018-06-28T00:28:43.766Z,0
2018-06-28T00:29:51.832Z,0
2018-06-28T00:30:59.886Z,0
2018-06-28T00:32:07.956Z,0
2018-06-28T00:33:16.037Z,0
2018-06-28T00:34:24.102Z,0
2018-06-28T00:35:32.157Z,0
2018-06-28T00:36:40.206Z,0
2018-06-28T00:37:48.282Z,0
2018-06-28T00:38:56.357Z,0
2018-06-28T00:40:04.420Z,0
2018-06-28T00:41:12.465Z,0
2018-06-28T00:42:20.557Z,0
2018-06-28T00:43:28.604Z,0
2018-06-28T00:44:36.663Z,0
2018-06-28T00:45:44.726Z,0
2018-06-28T00:46:52.808Z,0
2018-06-28T00:48:00.861Z,0
2018-06-28T00:49:08.930Z,0
2018-06-28T00:50:16.953Z,0
2018-06-28T00:51:25.064Z,0
2018-06-28T00:52:33.128Z,0
2018-06-28T00:53:41.183Z,0
2018-06-28T00:54:49.240Z,0
2018-06-28T00:55:57.292Z,0
2018-06-28T00:57:05.493Z,0
2018-06-28T00:58:13.447Z,0
2018-06-28T00:59:21.503Z,0
2018-06-28T01:00:29.577Z,0
2018-06-28T01:01:37.600Z,0
2018-06-28T01:02:45.694Z,0
2018-06-28T01:03:53.776Z,0
2018-06-28T01:05:01.829Z,0
2018-06-28T01:06:09.902Z,0
2018-06-28T01:07:17.970Z,0
2018-06-28T01:08:26.022Z,0
2018-06-28T01:09:34.097Z,0
2018-06-28T01:10:42.152Z,0
2018-06-28T01:11:50.218Z,0
2018-06-28T01:12:58.279Z,0
2018-06-28T01:14:06.342Z,0
2018-06-28T01:15:14.417Z,0
2018-06-28T01:16:22.477Z,0
2018-06-28T01:17:30.543Z,0
2018-06-28T01:18:38.603Z,0
2018-06-28T01:19:46.654Z,0
2018-06-28T01:20:54.751Z,0
2018-06-28T01:22:02.816Z,0
2018-06-28T01:23:10.874Z,0
2018-06-28T01:24:18.947Z,0
2018-06-28T01:25:26.969Z,0
2018-06-28T01:26:35.065Z,0
2018-06-28T01:27:43.135Z,0
2018-06-28T01:28:51.196Z,0
2018-06-28T01:29:59.247Z,0
2018-06-28T01:31:07.302Z,0
2018-06-28T01:32:15.411Z,0
2018-06-28T01:33:23.464Z,0
2018-06-28T01:34:31.516Z,0
2018-06-28T01:35:39.590Z,0
2018-06-28T01:36:47.628Z,0
2018-06-28T01:37:55.709Z,0
2018-06-28T01:39:03.773Z,0
2018-06-28T01:40:11.837Z,0
2018-06-28T01:41:19.949Z,0
2018-06-28T01:42:27.962Z,0
2018-06-28T01:43:36.047Z,0
2018-06-28T01:44:44.100Z,0
2018-06-28T01:45:52.169Z,0
2018-06-28T01:47:00.212Z,0
2018-06-28T01:48:08.288Z,0
2018-06-28T01:49:16.364Z,0
2018-06-28T01:50:24.426Z,0
2018-06-28T01:51:32.493Z,0
2018-06-28T01:52:40.551Z,0
2018-06-28T01:53:48.614Z,0
2018-06-28T01:54:56.671Z,0
2018-06-28T01:56:04.767Z,0
2018-06-28T01:57:12.807Z,0
2018-06-28T01:58:20.875Z,0
2018-06-28T01:59:28.940Z,0
2018-06-28T02:00:36.970Z,0
2018-06-28T02:01:45.088Z,0
2018-06-28T02:02:53.127Z,0
2018-06-28T02:04:01.198Z,0
2018-06-28T02:05:09.258Z,0
2018-06-28T02:06:17.298Z,0
2018-06-28T02:07:25.397Z,0
2018-06-28T02:08:33.449Z,0
2018-06-28T02:09:41.517Z,0
2018-06-28T02:10:49.584Z,0
2018-06-28T02:11:57.627Z,0
2018-06-28T02:13:05.736Z,0
2018-06-28T02:14:13.785Z,0
2018-06-28T02:15:21.949Z,0
2018-06-28T02:16:29.917Z,0
2018-06-28T02:17:37.994Z,0
2018-06-28T02:18:46.039Z,0
2018-06-28T02:19:54.116Z,0
2018-06-28T02:21:02.178Z,0
2018-06-28T02:22:10.246Z,0
2018-06-28T02:23:18.321Z,0
2018-06-28T02:24:26.386Z,0
2018-06-28T02:25:34.458Z,0
2018-06-28T02:26:42.509Z,0
2018-06-28T02:27:50.584Z,0
2018-06-28T02:28:58.659Z,0
2018-06-28T02:30:06.712Z,0
2018-06-28T02:31:14.791Z,0
2018-06-28T02:32:22.847Z,0
2018-06-28T02:33:30.916Z,0
2018-06-28T02:34:38.981Z,0
2018-06-28T02:35:47.025Z,0
2018-06-28T02:36:55.118Z,0
2018-06-28T02:38:03.219Z,0
2018-06-28T02:39:11.232Z,0
2018-06-28T02:40:19.313Z,0
2018-06-28T02:41:27.342Z,0
2018-06-28T02:42:35.439Z,0
2018-06-28T02:43:43.509Z,0
2018-06-28T02:44:51.577Z,0
2018-06-28T02:45:59.646Z,0
2018-06-28T02:47:07.686Z,0
2018-06-28T02:48:15.773Z,0
2018-06-28T02:49:23.848Z,0
2018-06-28T02:50:31.912Z,4
2018-06-28T02:51:39.971Z,4
2018-06-28T02:52:48.039Z,4
2018-06-28T02:53:56.094Z,0
2018-06-28T02:55:04.162Z,4
2018-06-28T02:56:12.230Z,4
2018-06-28T02:57:20.305Z,8
2018-06-28T02:58:28.360Z,8
2018-06-28T02:59:36.425Z,8
2018-06-28T03:00:44.497Z,8
2018-06-28T03:01:52.558Z,12
2018-06-28T03:03:00.623Z,12
2018-06-28T03:04:08.682Z,16
2018-06-28T03:05:16.756Z,20
2018-06-28T03:06:24.833Z,20
2018-06-28T03:07:32.888Z,24
2018-06-28T03:08:40.983Z,28
2018-06-28T03:09:49.011Z,32
2018-06-28T03:10:57.060Z,40
2018-06-28T03:12:05.152Z,44
2018-06-28T03:13:13.206Z,48
2018-06-28T03:14:21.276Z,60
2018-06-28T03:15:29.339Z,68
2018-06-28T03:16:37.383Z,72
2018-06-28T03:17:45.485Z,84
2018-06-28T03:18:53.551Z,96
2018-06-28T03:20:01.631Z,104
2018-06-28T03:21:09.698Z,120
2018-06-28T03:22:17.745Z,132
2018-06-28T03:23:25.825Z,144
2018-06-28T03:24:33.942Z,164
2018-06-28T03:25:41.951Z,176
2018-06-28T03:26:50.023Z,196
2018-06-28T03:27:58.074Z,212
2018-06-28T03:29:06.143Z,228
2018-06-28T03:30:14.219Z,252
2018-06-28T03:31:22.380Z,272
2018-06-28T03:32:30.346Z,296
2018-06-28T03:33:38.402Z,316
2018-06-28T03:34:46.476Z,340
2018-06-28T03:35:54.533Z,364
2018-06-28T03:37:02.604Z,392
2018-06-28T03:38:10.665Z,416
2018-06-28T03:39:18.737Z,448
2018-06-28T03:40:26.773Z,476
2018-06-28T03:41:34.854Z,504
2018-06-28T03:42:42.916Z,536
2018-06-28T03:43:50.997Z,568
2018-06-28T03:44:59.063Z,612
2018-06-28T03:46:07.092Z,652
2018-06-28T03:47:15.177Z,696
2018-06-28T03:48:23.251Z,744
2018-06-28T03:49:31.302Z,792
2018-06-28T03:50:39.389Z,832
2018-06-28T03:51:47.406Z,872
2018-06-28T03:52:55.495Z,916
2018-06-28T03:54:03.575Z,952
2018-06-28T03:55:11.622Z,1004
2018-06-28T03:56:19.687Z,1040
2018-06-28T03:57:27.823Z,1088
2018-06-28T03:58:35.823Z,1124
2018-06-28T03:59:43.887Z,1160
2018-06-28T04:00:51.954Z,1204
2018-06-28T04:02:00.010Z,1240
2018-06-28T04:03:08.081Z,1288
2018-06-28T04:04:16.155Z,1336
2018-06-28T04:05:24.215Z,1380
2018-06-28T04:06:32.311Z,1416
2018-06-28T04:07:40.328Z,1460
2018-06-28T04:08:48.402Z,1504
2018-06-28T04:09:56.470Z,1540
2018-06-28T04:11:04.526Z,1580
2018-06-28T04:12:12.600Z,1608
2018-06-28T04:13:20.731Z,1640
2018-06-28T04:14:28.727Z,1676
2018-06-28T04:15:36.786Z,1704
2018-06-28T04:16:45.062Z,1740
2018-06-28T04:17:52.933Z,1768
2018-06-28T04:19:00.968Z,1800
2018-06-28T04:20:09.070Z,1832
2018-06-28T04:21:17.078Z,1868
2018-06-28T04:22:25.188Z,1900
2018-06-28T04:23:33.245Z,1932
2018-06-28T04:24:41.301Z,1964
2018-06-28T04:25:49.794Z,1996
2018-06-28T04:26:57.677Z,2028
2018-06-28T04:28:06.049Z,2056
2018-06-28T04:29:13.566Z,2084
2018-06-28T04:30:21.640Z,2116
2018-06-28T04:31:29.702Z,2144
2018-06-28T04:32:37.756Z,2180
2018-06-28T04:33:45.831Z,2212
2018-06-28T04:34:53.886Z,2236
2018-06-28T04:36:02.012Z,2268
2018-06-28T04:37:10.014Z,2296
2018-06-28T04:38:18.080Z,2332
2018-06-28T04:39:26.167Z,2364
2018-06-28T04:40:34.225Z,2400
2018-06-28T04:41:42.285Z,2436
2018-06-28T04:42:50.352Z,2480
2018-06-28T04:43:58.409Z,2520
2018-06-28T04:45:06.484Z,2556
2018-06-28T04:46:14.547Z,2588
2018-06-28T04:47:22.594Z,2624
2018-06-28T04:48:30.660Z,2648
2018-06-28T04:49:38.730Z,2680
2018-06-28T04:50:46.862Z,2708
2018-06-28T04:51:54.884Z,2732
2018-06-28T04:53:02.932Z,2764
2018-06-28T04:54:10.983Z,2792
2018-06-28T04:55:19.714Z,2816
2018-06-28T04:56:27.106Z,2852
2018-06-28T04:57:35.194Z,2884
2018-06-28T04:58:43.249Z,2920
2018-06-28T04:59:51.318Z,2948
2018-06-28T05:00:59.404Z,2984
2018-06-28T05:02:07.426Z,3012
2018-06-28T05:03:15.512Z,3032
2018-06-28T05:04:23.613Z,3044
2018-06-28T05:05:31.657Z,3072
2018-06-28T05:06:39.712Z,3620
2018-06-28T05:07:47.788Z,5452
2018-06-28T05:08:55.857Z,4884
2018-06-28T05:10:03.942Z,3764
2018-06-28T05:11:11.992Z,3732
2018-06-28T05:12:20.045Z,3912
2018-06-28T05:13:28.122Z,3420
2018-06-28T05:14:36.183Z,3464
2018-06-28T05:15:44.250Z,3492
2018-06-28T05:16:52.328Z,3508
2018-06-28T05:18:00.443Z,3560
2018-06-28T05:19:08.440Z,3600
2018-06-28T05:20:16.585Z,3656
2018-06-28T05:21:24.682Z,3720
2018-06-28T05:22:34.647Z,3792
2018-06-28T05:23:40.822Z,3872
2018-06-28T05:24:48.905Z,3960
2018-06-28T05:25:56.817Z,4056
2018-06-28T05:27:04.896Z,4072
2018-06-28T05:28:12.973Z,4096
2018-06-28T05:29:21.029Z,4104
2018-06-28T05:30:29.090Z,4132
2018-06-28T05:31:37.129Z,4160
2018-06-28T05:32:45.234Z,4164
2018-06-28T05:33:53.298Z,4192
2018-06-28T05:35:01.368Z,4196
2018-06-28T05:36:09.435Z,4244
2018-06-28T05:37:17.470Z,4300
2018-06-28T05:38:25.540Z,4324
2018-06-28T05:39:33.623Z,4384
2018-06-28T05:40:41.686Z,4456
2018-06-28T05:41:49.746Z,4416
2018-06-28T05:42:57.794Z,4428
2018-06-28T05:44:05.886Z,4424
2018-06-28T05:45:13.949Z,4436
2018-06-28T05:46:22.032Z,4464
2018-06-28T05:47:30.080Z,4520
2018-06-28T05:48:38.152Z,4576
2018-06-28T05:49:46.204Z,4660
2018-06-28T05:50:54.282Z,4764
2018-06-28T05:52:02.354Z,4764
2018-06-28T05:53:10.418Z,4740
2018-06-28T05:54:18.467Z,4684
2018-06-28T05:55:26.533Z,4636
2018-06-28T05:56:34.608Z,4632
2018-06-28T05:57:42.672Z,4616
2018-06-28T05:58:50.766Z,4584
2018-06-28T05:59:58.818Z,4560
2018-06-28T06:01:06.865Z,4512
2018-06-28T06:02:14.935Z,4548
2018-06-28T06:03:23.008Z,4616
2018-06-28T06:04:31.078Z,4684
2018-06-28T06:05:39.148Z,4756
2018-06-28T06:06:47.194Z,4796
2018-06-28T06:07:55.270Z,4812
2018-06-28T06:09:03.353Z,4796
2018-06-28T06:10:11.419Z,4812
2018-06-28T06:11:19.479Z,4828
2018-06-28T06:12:27.515Z,4868
2018-06-28T06:13:35.619Z,4936
2018-06-28T06:14:43.692Z,4980
2018-06-28T06:15:51.738Z,5036
2018-06-28T06:16:59.804Z,5116
2018-06-28T06:18:07.865Z,5168
2018-06-28T06:19:15.941Z,5220
2018-06-28T06:20:24.063Z,5260
2018-06-28T06:21:32.071Z,5304
2018-06-28T06:22:40.143Z,5324
2018-06-28T06:23:48.212Z,5320
2018-06-28T06:24:56.273Z,5368
2018-06-28T06:26:04.337Z,5448
2018-06-28T06:27:12.407Z,5532
2018-06-28T06:28:20.498Z,5572
2018-06-28T06:29:28.627Z,5672
2018-06-28T06:30:36.602Z,5708
2018-06-28T06:31:44.665Z,5716
2018-06-28T06:32:52.744Z,5728
2018-06-28T06:34:00.806Z,5788
2018-06-28T06:35:08.863Z,5832
2018-06-28T06:36:16.939Z,5868
2018-06-28T06:37:24.989Z,5932
2018-06-28T06:38:33.071Z,5976
2018-06-28T06:39:41.149Z,6036
2018-06-28T06:40:49.210Z,6060
2018-06-28T06:41:57.246Z,6108
2018-06-28T06:43:05.329Z,6080
2018-06-28T06:44:13.405Z,6064
2018-06-28T06:45:21.483Z,5972
2018-06-28T06:46:29.550Z,5988
2018-06-28T06:47:37.594Z,5956
2018-06-28T06:48:45.697Z,5964
2018-06-28T06:49:53.752Z,6048
2018-06-28T06:51:01.821Z,6152
2018-06-28T06:52:09.892Z,6160
2018-06-28T06:53:17.958Z,6080
2018-06-28T06:54:26.031Z,6044
2018-06-28T06:55:34.081Z,6016
2018-06-28T06:56:42.162Z,6132
2018-06-28T06:57:50.218Z,6268
2018-06-28T06:58:58.305Z,6440
2018-06-28T07:00:06.362Z,8852
2018-06-28T07:01:14.440Z,8956
2018-06-28T07:02:22.501Z,9024
2018-06-28T07:03:30.563Z,8644
2018-06-28T07:04:38.668Z,14320
2018-06-28T07:05:46.694Z,16784
2018-06-28T07:06:54.774Z,31328
2018-06-28T07:08:03.438Z,36480
2018-06-28T07:09:14.063Z,19488
2018-06-28T07:10:21.354Z,27392
2018-06-28T07:11:35.907Z,38400
2018-06-28T07:12:41.148Z,38624
2018-06-28T07:13:47.788Z,28064
2018-06-28T07:14:55.887Z,20544
2018-06-28T07:16:03.955Z,14748
2018-06-28T07:17:11.998Z,40448
2018-06-28T07:18:20.077Z,42688
2018-06-28T07:19:28.140Z,60768
2018-06-28T07:20:36.231Z,79040
2018-06-28T07:21:44.293Z,91648
2018-06-28T07:22:52.436Z,65056
2018-06-28T07:24:00.416Z,69376
2018-06-28T07:25:08.493Z,78464
2018-06-28T07:26:16.582Z,58016
2018-06-28T07:27:24.639Z,35552
2018-06-28T07:28:32.738Z,46368
2018-06-28T07:29:40.794Z,52064
2018-06-28T07:30:48.890Z,54720
2018-06-28T07:31:56.909Z,58592
2018-06-28T07:33:05.053Z,62592
2018-06-28T07:34:13.254Z,67328
2018-06-28T07:35:21.166Z,65440
2018-06-28T07:36:29.410Z,57184
2018-06-28T07:37:37.293Z,55808
2018-06-28T07:38:45.395Z,59680
2018-06-28T07:39:53.476Z,63712
2018-06-28T07:41:01.552Z,64864
2018-06-28T07:42:09.630Z,62208
2018-06-28T07:43:17.686Z,67008
2018-06-28T07:44:25.836Z,66400
2018-06-28T07:45:33.861Z,66304
2018-06-28T07:46:44.167Z,64864
2018-06-28T07:48:08.212Z,66560
2018-06-28T07:49:05.594Z,65696
2018-06-28T07:50:13.642Z,52832
2018-06-28T07:51:21.720Z,56544
2018-06-28T07:52:29.802Z,33888
2018-06-28T07:53:37.866Z,32352
2018-06-28T07:54:45.952Z,26400
2018-06-28T07:55:54.039Z,29824
2018-06-28T07:57:02.103Z,26304
2018-06-28T07:58:10.188Z,24480
2018-06-28T07:59:18.261Z,26304
2018-06-28T08:00:26.355Z,25504
2018-06-28T08:01:34.435Z,22912
2018-06-28T08:02:42.564Z,19968
2018-06-28T08:03:50.576Z,19616
2018-06-28T08:04:58.652Z,19296
2018-06-28T08:06:06.728Z,20832
2018-06-28T08:07:14.808Z,21376
2018-06-28T08:08:22.888Z,23456
2018-06-28T08:09:30.969Z,27968
2018-06-28T08:10:39.025Z,40768
2018-06-28T08:11:47.079Z,90976
2018-06-28T08:12:55.193Z,90368
2018-06-28T08:14:03.262Z,86560
2018-06-28T08:15:11.341Z,35008
2018-06-28T08:16:19.429Z,91104
2018-06-28T08:17:27.478Z,91744
2018-06-28T08:18:35.574Z,86528
2018-06-28T08:19:43.656Z,96480
2018-06-28T08:20:51.840Z,97856
2018-06-28T08:21:59.797Z,90240
2018-06-28T08:23:07.873Z,90848
2018-06-28T08:24:15.954Z,95104
2018-06-28T08:25:24.028Z,75552
2018-06-28T08:26:32.139Z,96256
2018-06-28T08:27:40.194Z,88608
2018-06-28T08:28:49.276Z,88864
2018-06-28T08:29:59.429Z,94272
2018-06-28T08:31:05.445Z,90976
2018-06-28T08:32:13.522Z,90912
2018-06-28T08:33:21.586Z,92256
2018-06-28T08:34:29.674Z,89024
2018-06-28T08:35:37.743Z,100192
2018-06-28T08:36:45.901Z,83072
2018-06-28T08:37:53.914Z,61152
2018-06-28T08:39:02.004Z,23392
2018-06-28T08:40:10.090Z,28800
2018-06-28T08:41:18.160Z,56256
2018-06-28T08:42:26.242Z,72928
2018-06-28T08:43:34.321Z,86720
2018-06-28T08:44:42.410Z,95328
2018-06-28T08:45:50.484Z,91392
2018-06-28T08:46:58.567Z,83136
2018-06-28T08:48:06.638Z,88512
2018-06-28T08:49:14.716Z,91200
2018-06-28T08:50:22.855Z,98176
2018-06-28T08:51:30.901Z,98016
2018-06-28T08:52:38.978Z,95072
2018-06-28T08:53:47.029Z,86560
2018-06-28T08:54:55.139Z,90944
2018-06-28T08:56:03.213Z,78528
2018-06-28T08:57:11.287Z,88352
2018-06-28T08:58:19.440Z,80608
2018-06-28T08:59:27.428Z,94080
2018-06-28T09:00:35.536Z,99936
2018-06-28T09:01:43.614Z,96288
2018-06-28T09:02:51.696Z,93920
2018-06-28T09:03:59.788Z,98304
2018-06-28T09:05:07.867Z,100544
2018-06-28T09:06:15.928Z,93760
2018-06-28T09:07:24.024Z,99168
2018-06-28T09:08:32.095Z,102944
2018-06-28T09:09:40.192Z,96096
2018-06-28T09:10:48.276Z,102912
2018-06-28T09:11:56.348Z,103040
2018-06-28T09:13:04.434Z,97152
2018-06-28T09:14:12.509Z,67456
2018-06-28T09:15:20.692Z,98912
2018-06-28T09:16:28.674Z,101728
2018-06-28T09:17:36.745Z,96480
2018-06-28T09:18:44.862Z,96512
2018-06-28T09:19:52.921Z,102048
2018-06-28T09:21:00.985Z,107840
2018-06-28T09:22:09.089Z,96576
2018-06-28T09:23:17.141Z,8752
2018-06-28T09:24:25.257Z,95648
2018-06-28T09:25:33.333Z,92320
2018-06-28T09:26:41.437Z,104672
2018-06-28T09:27:49.503Z,106496
2018-06-28T09:28:57.563Z,106592
2018-06-28T09:30:05.660Z,93952
2018-06-28T09:31:13.754Z,29952
2018-06-28T09:32:21.822Z,8792
2018-06-28T09:33:29.906Z,8076
2018-06-28T09:34:37.984Z,8948
2018-06-28T09:35:46.069Z,9516
2018-06-28T09:36:54.147Z,11008
2018-06-28T09:38:02.220Z,12160
2018-06-28T09:39:10.295Z,15072
2018-06-28T09:40:18.389Z,13164
2018-06-28T09:41:26.467Z,17088
2018-06-28T09:42:34.534Z,12448
2018-06-28T09:43:42.609Z,13548
2018-06-28T09:44:50.713Z,13204
2018-06-28T09:45:58.753Z,14924
2018-06-28T09:47:06.820Z,15460
2018-06-28T09:48:14.905Z,11892
2018-06-28T09:49:22.982Z,11416
2018-06-28T09:50:31.062Z,10620
2018-06-28T09:51:39.150Z,12444
2018-06-28T09:52:47.182Z,11728
2018-06-28T09:53:55.284Z,12284
2018-06-28T09:55:03.363Z,14848
2018-06-28T09:56:11.441Z,13792
2018-06-28T09:57:19.499Z,15160
2018-06-28T09:58:27.561Z,12760
2018-06-28T09:59:35.658Z,14612
2018-06-28T10:00:43.738Z,14552
2018-06-28T10:01:51.806Z,12684
2018-06-28T10:02:59.888Z,10564
2018-06-28T10:04:07.964Z,9152
2018-06-28T10:05:16.028Z,9884
2018-06-28T10:06:24.093Z,13812
2018-06-28T10:07:32.166Z,14328
2018-06-28T10:08:40.253Z,13988
2018-06-28T10:09:48.321Z,9740
2018-06-28T10:10:56.388Z,9872
2018-06-28T10:12:04.464Z,10928
2018-06-28T10:13:12.570Z,13132
2018-06-28T10:14:20.613Z,11888
2018-06-28T10:15:28.687Z,10728
2018-06-28T10:16:36.751Z,12260
2018-06-28T10:17:44.835Z,14824
2018-06-28T10:18:52.898Z,16204
2018-06-28T10:20:00.986Z,19648
2018-06-28T10:21:09.050Z,24512
2018-06-28T10:22:17.093Z,29216
2018-06-28T10:23:25.200Z,30592
2018-06-28T10:24:33.304Z,25120
2018-06-28T10:25:41.342Z,26208
2018-06-28T10:26:49.418Z,26912
2018-06-28T10:27:57.459Z,24800
2018-06-28T10:29:05.561Z,22944
2018-06-28T10:30:13.633Z,23936
2018-06-28T10:31:21.710Z,23552
2018-06-28T10:32:29.787Z,23808
2018-06-28T10:33:37.842Z,24064
2018-06-28T10:34:45.926Z,23072
2018-06-28T10:35:54.000Z,21376
2018-06-28T10:37:02.076Z,19136
2018-06-28T10:38:10.139Z,15716
2018-06-28T10:39:18.217Z,12908
2018-06-28T10:40:26.306Z,12044
2018-06-28T10:41:34.364Z,12048
2018-06-28T10:42:42.441Z,13268
2018-06-28T10:43:50.513Z,15232
2018-06-28T10:44:58.584Z,17408
2018-06-28T10:46:06.672Z,17216
2018-06-28T10:47:14.733Z,17280
2018-06-28T10:48:22.827Z,19104
2018-06-28T10:49:30.881Z,18720
2018-06-28T10:50:38.948Z,17856
2018-06-28T10:51:47.000Z,15136
2018-06-28T10:52:55.098Z,15044
2018-06-28T10:54:03.234Z,16136
2018-06-28T10:55:11.247Z,17248
2018-06-28T10:56:19.341Z,19712
2018-06-28T10:57:27.367Z,19040
2018-06-28T10:58:35.462Z,18496
2018-06-28T10:59:43.539Z,16528
2018-06-28T11:00:51.611Z,14276
2018-06-28T11:01:59.678Z,10704
2018-06-28T11:03:07.741Z,8832
2018-06-28T11:04:15.830Z,8932
2018-06-28T11:05:23.907Z,10336
2018-06-28T11:06:31.972Z,12780
2018-06-28T11:07:40.046Z,13676
2018-06-28T11:08:48.106Z,11700
2018-06-28T11:09:56.221Z,9352
2018-06-28T11:11:04.259Z,8004
2018-06-28T11:12:12.324Z,6624
2018-06-28T11:13:20.553Z,6876
2018-06-28T11:14:32.702Z,5304
2018-06-28T11:15:40.807Z,4140
2018-06-28T11:16:48.862Z,3920
2018-06-28T11:17:56.908Z,4456
2018-06-28T11:19:05.005Z,5508
2018-06-28T11:20:13.082Z,8028
2018-06-28T11:21:21.157Z,7004
2018-06-28T11:22:29.263Z,6960
2018-06-28T11:23:37.255Z,7532
2018-06-28T11:24:45.365Z,7288
2018-06-28T11:25:53.424Z,7440
2018-06-28T11:27:01.506Z,7440
2018-06-28T11:28:09.568Z,7996
2018-06-28T11:29:17.635Z,8492
2018-06-28T11:30:25.704Z,8572
2018-06-28T11:31:33.788Z,8888
2018-06-28T11:32:41.862Z,10076
2018-06-28T11:33:49.930Z,11664
2018-06-28T11:34:57.984Z,12440
2018-06-28T11:36:06.060Z,12616
2018-06-28T11:37:14.141Z,12684
2018-06-28T11:38:22.216Z,12072
2018-06-28T11:39:30.277Z,11748
2018-06-28T11:40:38.349Z,11772
2018-06-28T11:41:46.406Z,12456
2018-06-28T11:42:54.497Z,14084
2018-06-28T11:44:02.553Z,14728
2018-06-28T11:45:10.624Z,14048
2018-06-28T11:46:18.701Z,12236
2018-06-28T11:47:26.762Z,11152
2018-06-28T11:48:34.847Z,11036
2018-06-28T11:49:42.914Z,11184
2018-06-28T11:50:50.976Z,11200
2018-06-28T11:51:59.054Z,11400
2018-06-28T11:53:07.087Z,11936
2018-06-28T11:54:15.187Z,12784
2018-06-28T11:55:23.272Z,14352
2018-06-28T11:56:31.328Z,16572
2018-06-28T11:57:39.406Z,18656
2018-06-28T11:58:47.450Z,18752
2018-06-28T11:59:55.538Z,17984
2018-06-28T12:01:03.606Z,16640
2018-06-28T12:02:11.693Z,15168
2018-06-28T12:03:19.762Z,13768
2018-06-28T12:04:27.821Z,12516
2018-06-28T12:05:35.950Z,11024
2018-06-28T12:06:43.967Z,9880
2018-06-28T12:07:52.057Z,9188
2018-06-28T12:09:00.118Z,9268
2018-06-28T12:10:08.178Z,10448
2018-06-28T12:11:16.243Z,12328
2018-06-28T12:12:24.318Z,14648
2018-06-28T12:13:32.391Z,16492
2018-06-28T12:14:40.456Z,17984
2018-06-28T12:15:48.536Z,18976
2018-06-28T12:16:56.607Z,20256
2018-06-28T12:18:04.667Z,21536
2018-06-28T12:19:12.745Z,21952
2018-06-28T12:20:20.815Z,22240
2018-06-28T12:21:28.879Z,22176
2018-06-28T12:22:36.948Z,21056
2018-06-28T12:23:45.025Z,20096
2018-06-28T12:24:53.097Z,20896
2018-06-28T12:26:01.175Z,22560
2018-06-28T12:27:09.236Z,23424
2018-06-28T12:28:17.282Z,22560
2018-06-28T12:29:25.388Z,20832
2018-06-28T12:30:33.452Z,19520
2018-06-28T12:31:41.532Z,19456
2018-06-28T12:32:49.598Z,20544
2018-06-28T12:33:57.653Z,21920
2018-06-28T12:35:05.741Z,22656
2018-06-28T12:36:13.819Z,21728
2018-06-28T12:37:21.895Z,19904
2018-06-28T12:38:29.960Z,19168
2018-06-28T12:39:38.034Z,20864
2018-06-28T12:40:46.106Z,22912
2018-06-28T12:41:54.187Z,24352
2018-06-28T12:43:02.251Z,27008
2018-06-28T12:44:10.322Z,24416
2018-06-28T12:45:18.394Z,25248
2018-06-28T12:46:43.730Z,21728
2018-06-28T12:47:34.546Z,15600
2018-06-28T12:48:42.611Z,11704
2018-06-28T12:50:03.417Z,14960
2018-06-28T12:50:58.749Z,19520
2018-06-28T12:52:06.791Z,22464
2018-06-28T12:53:14.903Z,25696
2018-06-28T12:54:23.009Z,24544
2018-06-28T12:55:31.049Z,23424
2018-06-28T12:56:39.126Z,21152
2018-06-28T12:57:50.492Z,22144
2018-06-28T12:58:56.462Z,24832
2018-06-28T13:00:04.557Z,25120
2018-06-28T13:01:12.609Z,26176
2018-06-28T13:02:22.499Z,26304
2018-06-28T13:03:30.562Z,24256
2018-06-28T13:04:38.656Z,22208
2018-06-28T13:05:46.706Z,20000
2018-06-28T13:06:54.776Z,16640
2018-06-28T13:08:02.861Z,13380
2018-06-28T13:09:10.919Z,12000
2018-06-28T13:10:19.003Z,10608
2018-06-28T13:11:27.061Z,9032
2018-06-28T13:12:35.153Z,9100
2018-06-28T13:13:43.232Z,9900
2018-06-28T13:14:51.296Z,11224
2018-06-28T13:15:59.374Z,13052
2018-06-28T13:17:07.414Z,19616
2018-06-28T13:18:15.531Z,22496
2018-06-28T13:19:23.590Z,22048
2018-06-28T13:20:31.681Z,23232
2018-06-28T13:21:39.737Z,19616
2018-06-28T13:22:47.794Z,18912
2018-06-28T13:23:55.872Z,18400
2018-06-28T13:25:03.958Z,24576
2018-06-28T13:26:12.019Z,23296
2018-06-28T13:27:20.099Z,21280
2018-06-28T13:28:32.455Z,18560
2018-06-28T13:29:40.476Z,17728
2018-06-28T13:30:48.543Z,15940
2018-06-28T13:31:56.629Z,14940
2018-06-28T13:33:04.690Z,19072
2018-06-28T13:34:12.770Z,19232
2018-06-28T13:35:20.849Z,15416
2018-06-28T13:36:28.920Z,18048
2018-06-28T13:37:36.959Z,22016
2018-06-28T13:38:45.060Z,21824
2018-06-28T13:39:53.136Z,19296
2018-06-28T13:41:01.344Z,17920
2018-06-28T13:42:09.404Z,16060
2018-06-28T13:43:17.313Z,14408
2018-06-28T13:44:25.428Z,13988
2018-06-28T13:45:33.496Z,14296
2018-06-28T13:46:41.572Z,14128
2018-06-28T13:47:49.639Z,13724
2018-06-28T13:48:57.695Z,14060
2018-06-28T13:50:05.784Z,14888
2018-06-28T13:51:13.853Z,16176
2018-06-28T13:52:21.922Z,17728
2018-06-28T13:53:30.007Z,19200
2018-06-28T13:54:38.080Z,20928
2018-06-28T13:55:46.147Z,21920
2018-06-28T13:56:54.217Z,21536
2018-06-28T13:58:02.288Z,20544
2018-06-28T13:59:10.373Z,20288
2018-06-28T14:00:18.427Z,18816
2018-06-28T14:01:26.496Z,16260
2018-06-28T14:02:34.585Z,12708
2018-06-28T14:03:42.653Z,8980
2018-06-28T14:04:50.723Z,9020
2018-06-28T14:05:58.784Z,10712
2018-06-28T14:07:06.857Z,10120
2018-06-28T14:08:14.966Z,7996
2018-06-28T14:09:23.038Z,6200
2018-06-28T14:10:41.917Z,5696
2018-06-28T14:11:39.173Z,5676
2018-06-28T14:12:48.427Z,5440
2018-06-28T14:13:56.513Z,6000
2018-06-28T14:15:07.790Z,7688
2018-06-28T14:16:13.269Z,10304
2018-06-28T14:17:21.314Z,13736
2018-06-28T14:18:29.998Z,16640
2018-06-28T14:19:37.444Z,16044
2018-06-28T14:20:45.543Z,15028
2018-06-28T14:21:53.617Z,14280
2018-06-28T14:23:01.683Z,13068
2018-06-28T14:24:09.756Z,12408
2018-06-28T14:25:17.821Z,10376
2018-06-28T14:26:25.892Z,8332
2018-06-28T14:27:33.978Z,8576
2018-06-28T14:28:42.037Z,10664
2018-06-28T14:29:50.109Z,13292
2018-06-28T14:30:58.209Z,16640
2018-06-28T14:32:06.253Z,17696
2018-06-28T14:33:14.329Z,17056
2018-06-28T14:34:29.878Z,17184
2018-06-28T14:35:34.907Z,18592
2018-06-28T14:36:42.988Z,20064
2018-06-28T14:37:51.055Z,18560
2018-06-28T14:38:59.139Z,15460
2018-06-28T14:40:07.165Z,13948
2018-06-28T14:41:15.260Z,12300
2018-06-28T14:42:23.349Z,12732
2018-06-28T14:43:31.416Z,14000
2018-06-28T14:44:39.501Z,14340
2018-06-28T14:45:47.531Z,13472
2018-06-28T14:46:55.623Z,13440
2018-06-28T14:48:03.690Z,13928
2018-06-28T14:49:11.780Z,15008
2018-06-28T14:50:19.845Z,16780
2018-06-28T14:51:27.911Z,16700
2018-06-28T14:52:35.987Z,16056
2018-06-28T14:53:44.060Z,15884
2018-06-28T14:54:52.174Z,16164
2018-06-28T14:56:00.210Z,15432
2018-06-28T14:57:08.283Z,15244
2018-06-28T14:58:16.341Z,14492
2018-06-28T14:59:24.412Z,13792
2018-06-28T15:00:32.481Z,12344
2018-06-28T15:01:40.567Z,10500
2018-06-28T15:02:48.634Z,9668
2018-06-28T15:03:56.708Z,10288
2018-06-28T15:05:04.775Z,10364
2018-06-28T15:06:12.853Z,10988
2018-06-28T15:07:20.916Z,12812
2018-06-28T15:08:28.996Z,12984
2018-06-28T15:09:37.041Z,11488
2018-06-28T15:10:45.137Z,13732
2018-06-28T15:11:53.222Z,12360